createdAt,value
2019-04-16T00:02:01.136Z,10.23
2019-04-16T00:04:56.625Z,9.57
2019-04-16T00:08:02.887Z,10.67
2019-04-16T00:10:55.713Z,8.87
2019-04-16T00:13:39.911Z,7.60
2019-04-16T00:16:13.812Z,12.23
2019-04-16T00:18:57.290Z,5.80
2019-04-16T00:21:49.637Z,7.07
2019-04-16T00:24:34.699Z,7.57
2019-04-16T00:27:08.577Z,9.80
2019-04-16T00:29:43.219Z,8.27
2019-04-16T00:32:31.499Z,7.23
2019-04-16T00:35:05.457Z,11.07
2019-04-16T00:37:40.376Z,7.47
2019-04-16T00:40:14.550Z,11.00
2019-04-16T00:42:49.980Z,13.20
2019-04-16T00:45:26.653Z,10.27
2019-04-16T00:48:00.326Z,9.83
2019-04-16T00:50:33.965Z,11.57
2019-04-16T00:53:09.312Z,9.87
2019-04-16T00:55:46.517Z,11.97
2019-04-16T00:58:20.378Z,7.57
2019-04-16T01:00:54.519Z,13.03
2019-04-16T01:03:28.308Z,12.03
2019-04-16T01:06:07.023Z,11.63
2019-04-16T01:08:37.779Z,13.63
2019-04-16T01:11:11.502Z,13.30
2019-04-16T01:13:46.555Z,10.90
2019-04-16T01:16:20.332Z,10.40
2019-04-16T01:18:55.076Z,9.57
2019-04-16T01:21:29.180Z,9.43
2019-04-16T01:24:02.877Z,11.60
2019-04-16T01:26:37.710Z,11.23
2019-04-16T01:29:16.707Z,10.60
2019-04-16T01:32:10.269Z,16.93
2019-04-16T01:34:54.855Z,11.03
2019-04-16T01:38:04.112Z,9.33
2019-04-16T01:40:55.688Z,16.77
2019-04-16T01:43:29.385Z,12.33
2019-04-16T01:46:04.855Z,13.70
2019-04-16T01:48:42.130Z,8.70
2019-04-16T01:51:16.295Z,11.73
2019-04-16T01:53:52.279Z,13.90
2019-04-16T01:56:28.797Z,15.30
2019-04-16T01:59:05.915Z,13.80
2019-04-16T02:01:40.332Z,11.70
2019-04-16T02:04:19.832Z,11.00
2019-04-16T02:06:54.325Z,10.73
2019-04-16T02:09:34.236Z,9.40
2019-04-16T02:12:06.860Z,11.43
2019-04-16T02:14:41.075Z,9.40
2019-04-16T02:17:14.736Z,10.83
2019-04-16T02:19:48.498Z,8.23
2019-04-16T02:22:22.290Z,8.67
2019-04-16T02:24:55.911Z,10.23
2019-04-16T02:27:31.039Z,10.43
2019-04-16T02:30:05.918Z,13.10
2019-04-16T02:32:39.749Z,14.53
2019-04-16T02:35:13.761Z,10.53
2019-04-16T02:37:47.509Z,10.70
2019-04-16T02:40:21.432Z,9.30
2019-04-16T02:42:56.762Z,8.50
2019-04-16T02:45:30.489Z,8.33
2019-04-16T02:48:04.303Z,9.90
2019-04-16T02:50:48.647Z,11.10
2019-04-16T02:53:40.155Z,16.83
2019-04-16T02:56:52.056Z,15.30
2019-04-16T02:59:27.789Z,10.33
2019-04-16T03:02:11.856Z,14.97
2019-04-16T03:04:51.446Z,11.40
2019-04-16T03:07:25.274Z,10.33
2019-04-16T03:10:01.793Z,11.20
2019-04-16T03:12:34.777Z,12.53
2019-04-16T03:15:09.097Z,11.10
2019-04-16T03:17:45.487Z,13.83
2019-04-16T03:20:20.728Z,9.93
2019-04-16T03:22:55.024Z,14.40
2019-04-16T03:25:28.650Z,11.70
2019-04-16T03:28:02.790Z,10.83
2019-04-16T03:30:42.391Z,16.90
2019-04-16T03:33:15.156Z,8.87
2019-04-16T03:35:49.261Z,15.50
2019-04-16T03:38:24.548Z,8.73
2019-04-16T03:40:59.569Z,11.93
2019-04-16T03:43:33.618Z,9.57
2019-04-16T03:46:12.143Z,12.67
2019-04-16T03:48:43.138Z,9.97
2019-04-16T03:51:17.185Z,8.97
2019-04-16T03:53:50.912Z,11.80
2019-04-16T03:56:27.544Z,10.10
2019-04-16T03:59:03.401Z,11.63
2019-04-16T04:01:37.120Z,17.60
2019-04-16T04:04:13.478Z,17.83
2019-04-16T04:06:48.713Z,17.80
2019-04-16T04:09:22.969Z,9.40
2019-04-16T04:11:57.079Z,14.17
2019-04-16T04:14:31.858Z,9.27
2019-04-16T04:17:07.059Z,23.00
2019-04-16T04:19:46.157Z,9.53
2019-04-16T04:22:19.235Z,10.50
2019-04-16T04:24:53.360Z,15.83
2019-04-16T04:27:27.058Z,9.40
2019-04-16T04:30:02.503Z,14.90
2019-04-16T04:32:47.614Z,10.73
2019-04-16T04:35:22.319Z,14.50
2019-04-16T04:37:56.838Z,8.97
2019-04-16T04:40:44.507Z,8.40
2019-04-16T04:43:10.835Z,13.83
2019-04-16T04:45:44.496Z,8.73
2019-04-16T04:48:22.962Z,9.93
2019-04-16T04:50:53.570Z,9.77
2019-04-16T04:53:27.729Z,14.13
2019-04-16T04:56:01.470Z,11.13
2019-04-16T04:58:36.808Z,10.37
2019-04-16T05:01:13.627Z,12.47
2019-04-16T05:04:03.172Z,9.37
2019-04-16T05:06:38.360Z,19.43
2019-04-16T05:09:13.642Z,7.83
2019-04-16T05:11:48.575Z,10.40
2019-04-16T05:14:25.961Z,10.30
2019-04-16T05:17:03.654Z,10.10
2019-04-16T05:19:37.648Z,11.00
2019-04-16T05:22:12.750Z,9.40
2019-04-16T05:24:46.486Z,13.23
2019-04-16T05:27:20.149Z,11.73
2019-04-16T05:29:53.900Z,8.03
2019-04-16T05:32:32.984Z,7.90
2019-04-16T05:35:09.204Z,12.50
2019-04-16T05:37:40.562Z,53.07
2019-04-16T05:40:14.435Z,77.77
2019-04-16T05:42:48.075Z,69.73
2019-04-16T05:45:21.782Z,179.30
2019-04-16T05:47:55.591Z,102.53
2019-04-16T05:50:31.112Z,79.17
2019-04-16T05:53:08.452Z,38.87
2019-04-16T05:55:57.507Z,19.03
2019-04-16T05:58:31.602Z,12.33
2019-04-16T06:01:23.947Z,45.23
2019-04-16T06:03:58.963Z,22.60
2019-04-16T06:06:32.666Z,8.07
2019-04-16T06:09:12.205Z,11.00
2019-04-16T06:11:45.560Z,12.20
2019-04-16T06:14:27.059Z,8.67
2019-04-16T06:17:31.913Z,9.20
2019-04-16T06:20:22.489Z,11.10
2019-04-16T06:23:05.913Z,11.43
2019-04-16T06:25:45.057Z,12.30
2019-04-16T06:28:36.225Z,13.27
2019-04-16T06:31:29.809Z,12.83
2019-04-16T06:34:26.071Z,9.13
2019-04-16T06:37:26.603Z,8.10
2019-04-16T06:40:19.518Z,7.33
2019-04-16T06:42:58.018Z,11.83
2019-04-16T06:45:56.780Z,9.70
2019-04-16T06:48:35.524Z,9.77
2019-04-16T06:51:31.666Z,17.03
2019-04-16T06:54:25.323Z,10.23
2019-04-16T06:57:16.663Z,14.13
2019-04-16T07:00:02.333Z,10.13
2019-04-16T07:03:02.396Z,15.63
2019-04-16T07:05:37.207Z,11.53
2019-04-16T07:08:19.884Z,9.40
2019-04-16T07:10:56.086Z,11.57
2019-04-16T07:13:29.784Z,11.77
2019-04-16T07:16:03.488Z,16.37
2019-04-16T07:18:38.682Z,9.37
2019-04-16T07:21:14.499Z,24.07
2019-04-16T07:23:49.402Z,16.90
2019-04-16T07:26:23.293Z,10.37
2019-04-16T07:29:13.400Z,14.30
2019-04-16T07:31:54.279Z,17.77
2019-04-16T07:34:44.685Z,8.10
2019-04-16T07:37:37.297Z,9.67
2019-04-16T07:40:23.846Z,12.90
2019-04-16T07:43:15.997Z,10.10
2019-04-16T07:46:01.541Z,9.97
2019-04-16T07:48:47.687Z,13.57
2019-04-16T07:51:27.535Z,17.30
2019-04-16T07:54:28.257Z,11.27
2019-04-16T07:57:01.958Z,9.57
2019-04-16T07:59:37.332Z,10.60
2019-04-16T08:02:11.636Z,9.80
2019-04-16T08:04:45.496Z,14.33
2019-04-16T08:07:20.477Z,10.17
2019-04-16T08:09:54.784Z,14.10
2019-04-16T08:12:30.650Z,8.83
2019-04-16T08:15:13.243Z,14.43
2019-04-16T08:17:40.817Z,11.37
2019-04-16T08:20:19.774Z,9.90
2019-04-16T08:22:53.141Z,14.97
2019-04-16T08:25:33.592Z,12.50
2019-04-16T08:28:07.709Z,10.63
2019-04-16T08:30:41.825Z,10.70
2019-04-16T08:33:16.568Z,11.60
2019-04-16T08:35:51.898Z,8.80
2019-04-16T08:38:26.959Z,10.00
2019-04-16T08:41:00.983Z,12.33
2019-04-16T08:43:34.653Z,10.67
2019-04-16T08:46:11.558Z,10.10
2019-04-16T08:48:48.894Z,14.47
2019-04-16T08:51:30.115Z,13.40
2019-04-16T08:53:58.173Z,12.30
2019-04-16T08:56:33.105Z,7.87
2019-04-16T08:59:10.039Z,14.63
2019-04-16T09:01:44.329Z,14.53
2019-04-16T09:04:18.007Z,17.87
2019-04-16T09:06:51.821Z,14.03
2019-04-16T09:09:36.835Z,9.73
2019-04-16T09:12:12.638Z,12.23
2019-04-16T09:14:48.668Z,10.30
2019-04-16T09:17:35.093Z,13.80
2019-04-16T09:20:15.044Z,15.70
2019-04-16T09:22:49.750Z,11.60
2019-04-16T09:25:45.681Z,14.80
2019-04-16T09:28:26.296Z,15.43
2019-04-16T09:31:09.125Z,8.60
2019-04-16T09:33:57.327Z,11.30
2019-04-16T09:37:01.290Z,11.63
2019-04-16T09:40:15.914Z,12.60
2019-04-16T09:42:38.373Z,12.00
2019-04-16T09:45:15.012Z,15.17
2019-04-16T09:47:50.595Z,13.00
2019-04-16T09:50:25.324Z,17.03
2019-04-16T09:53:01.767Z,16.20
2019-04-16T09:55:34.447Z,12.63
2019-04-16T09:58:17.088Z,18.17
2019-04-16T10:01:05.320Z,13.63
2019-04-16T10:03:41.177Z,20.30
2019-04-16T10:06:15.148Z,12.10
2019-04-16T10:08:51.660Z,13.73
2019-04-16T10:11:25.467Z,10.63
2019-04-16T10:13:59.356Z,15.17
2019-04-16T10:16:34.247Z,15.73
2019-04-16T10:19:09.076Z,17.17
2019-04-16T10:21:42.951Z,14.50
2019-04-16T10:24:38.964Z,16.00
2019-04-16T10:27:17.373Z,14.13
2019-04-16T10:29:51.090Z,15.20
2019-04-16T10:32:27.251Z,17.87
2019-04-16T10:35:01.571Z,13.90
2019-04-16T10:37:36.190Z,13.50
2019-04-16T10:40:22.212Z,15.10
2019-04-16T10:43:43.959Z,16.10
2019-04-16T10:46:22.391Z,12.50
2019-04-16T10:49:12.178Z,11.10
2019-04-16T10:52:03.906Z,22.40
2019-04-16T10:54:45.745Z,18.53
2019-04-16T10:57:44.277Z,14.03
2019-04-16T11:00:44.730Z,10.97
2019-04-16T11:03:28.647Z,12.87
2019-04-16T11:06:11.326Z,14.73
2019-04-16T11:08:47.102Z,13.83
2019-04-16T11:11:24.053Z,13.97
2019-04-16T11:13:59.975Z,13.50
2019-04-16T11:16:35.959Z,14.43
2019-04-16T11:19:11.470Z,13.73
2019-04-16T11:21:45.286Z,14.03
2019-04-16T11:24:20.611Z,13.40
2019-04-16T11:26:54.351Z,12.93
2019-04-16T11:29:27.995Z,14.10
2019-04-16T11:32:03.833Z,18.70
2019-04-16T11:34:37.546Z,15.17
2019-04-16T11:37:12.382Z,13.77
2019-04-16T11:39:46.260Z,13.10
2019-04-16T11:42:20.188Z,18.10
2019-04-16T11:44:55.005Z,13.73
2019-04-16T11:47:33.859Z,16.67
2019-04-16T11:50:05.618Z,14.60
2019-04-16T11:52:40.032Z,20.23
2019-04-16T11:55:14.144Z,20.73
2019-04-16T11:57:48.364Z,15.50
2019-04-16T12:00:45.020Z,17.87
2019-04-16T12:03:28.296Z,16.33
2019-04-16T12:06:27.804Z,17.90
2019-04-16T12:09:28.911Z,16.80
2019-04-16T12:12:24.253Z,18.60
2019-04-16T12:15:31.429Z,26.73
2019-04-16T12:18:32.114Z,15.13
2019-04-16T12:21:20.550Z,24.73
2019-04-16T12:24:03.977Z,16.07
2019-04-16T12:27:05.709Z,18.33
2019-04-16T12:30:12.483Z,19.57
2019-04-16T12:33:07.485Z,27.30
2019-04-16T12:36:05.799Z,17.40
2019-04-16T12:38:44.193Z,19.07
2019-04-16T12:41:35.483Z,19.70
2019-04-16T12:44:45.719Z,17.00
2019-04-16T12:47:58.871Z,19.00
2019-04-16T12:50:48.019Z,31.37
2019-04-16T12:53:54.064Z,20.53
2019-04-16T12:56:45.564Z,17.90
2019-04-16T12:59:30.026Z,24.87
2019-04-16T13:02:35.824Z,18.10
2019-04-16T13:05:20.861Z,20.10
2019-04-16T13:08:15.146Z,22.20
2019-04-16T13:11:11.805Z,22.33
2019-04-16T13:14:05.132Z,19.83
2019-04-16T13:17:08.131Z,20.63
2019-04-16T13:19:50.815Z,23.20
2019-04-16T13:22:28.606Z,19.63
2019-04-16T13:25:13.269Z,21.20
2019-04-16T13:27:47.856Z,17.33
2019-04-16T13:30:23.184Z,19.60
2019-04-16T13:32:57.000Z,17.17
2019-04-16T13:35:31.875Z,17.23
2019-04-16T13:38:09.262Z,18.30
2019-04-16T13:40:41.612Z,18.50
2019-04-16T13:43:20.330Z,18.83
2019-04-16T13:45:57.948Z,19.60
2019-04-16T13:48:37.489Z,22.80
2019-04-16T13:51:18.686Z,20.83
2019-04-16T13:54:09.712Z,19.77
2019-04-16T13:56:51.592Z,22.13
2019-04-16T14:00:03.066Z,17.17
2019-04-16T14:02:43.042Z,20.73
2019-04-16T14:05:16.786Z,16.47
2019-04-16T14:07:50.594Z,17.30
2019-04-16T14:10:27.483Z,20.13
2019-04-16T14:13:01.365Z,17.50
2019-04-16T14:15:40.267Z,19.77
2019-04-16T14:18:13.633Z,18.13
2019-04-16T14:20:48.960Z,20.03
2019-04-16T14:23:24.560Z,23.73
2019-04-16T14:25:58.674Z,20.20
2019-04-16T14:28:40.152Z,17.27
2019-04-16T14:31:10.824Z,19.20
2019-04-16T14:34:03.902Z,22.10
2019-04-16T14:36:37.662Z,19.93
2019-04-16T14:39:31.867Z,17.73
2019-04-16T14:42:07.372Z,16.27
2019-04-16T14:44:45.708Z,16.47
2019-04-16T14:47:19.723Z,16.33
2019-04-16T14:49:54.526Z,19.40
2019-04-16T14:52:28.168Z,21.60
2019-04-16T14:55:12.694Z,20.93
2019-04-16T14:58:23.361Z,19.80
2019-04-16T15:01:28.561Z,19.70
2019-04-16T15:04:19.579Z,16.87
2019-04-16T15:07:16.109Z,22.17
2019-04-16T15:10:11.403Z,19.17
2019-04-16T15:13:04.002Z,20.67
2019-04-16T15:15:40.982Z,18.63
2019-04-16T15:18:36.633Z,18.93
2019-04-16T15:21:43.918Z,20.33
2019-04-16T15:24:35.825Z,19.33
2019-04-16T15:27:31.597Z,18.50
2019-04-16T15:30:30.818Z,24.87
2019-04-16T15:33:30.941Z,27.17
2019-04-16T15:36:10.563Z,17.07
2019-04-16T15:39:08.950Z,17.43
2019-04-16T15:42:01.785Z,24.97
2019-04-16T15:44:42.957Z,20.33
2019-04-16T15:47:42.860Z,19.77
2019-04-16T15:50:35.209Z,23.07
2019-04-16T15:53:10.708Z,21.80
2019-04-16T15:55:51.907Z,18.37
2019-04-16T15:58:38.197Z,22.73
2019-04-16T16:01:21.847Z,22.17
2019-04-16T16:04:15.118Z,19.53
2019-04-16T16:06:58.620Z,19.63
2019-04-16T16:09:51.252Z,22.23
2019-04-16T16:12:29.031Z,21.80
2019-04-16T16:15:07.528Z,21.50
2019-04-16T16:17:40.358Z,20.03
2019-04-16T16:20:15.636Z,20.07
2019-04-16T16:22:50.733Z,22.47
2019-04-16T16:25:24.693Z,24.20
2019-04-16T16:28:00.290Z,22.13
2019-04-16T16:30:34.558Z,19.80
2019-04-16T16:33:08.282Z,20.10
2019-04-16T16:35:57.110Z,21.70
2019-04-16T16:38:20.787Z,20.37
2019-04-16T16:40:54.966Z,19.37
2019-04-16T16:43:28.631Z,21.07
2019-04-16T16:46:24.172Z,24.37
2019-04-16T16:48:59.517Z,19.27
2019-04-16T16:51:35.907Z,24.03
2019-04-16T16:54:23.197Z,22.67
2019-04-16T16:57:08.138Z,22.20
2019-04-16T16:59:59.525Z,19.87
2019-04-16T17:02:56.853Z,20.97
2019-04-16T17:05:33.311Z,17.00
2019-04-16T17:08:08.863Z,22.30
2019-04-16T17:10:44.545Z,20.20
2019-04-16T17:13:21.013Z,18.77
2019-04-16T17:15:53.764Z,24.80
2019-04-16T17:18:27.576Z,22.90
2019-04-16T17:21:02.884Z,18.10
2019-04-16T17:23:40.977Z,35.43
2019-04-16T17:26:16.775Z,20.60
2019-04-16T17:28:50.663Z,20.83
2019-04-16T17:31:24.765Z,19.60
2019-04-16T17:34:00.606Z,23.23
2019-04-16T17:36:36.702Z,20.10
2019-04-16T17:39:12.762Z,23.23
2019-04-16T17:41:59.473Z,23.70
2019-04-16T17:44:57.916Z,16.60
2019-04-16T17:47:49.827Z,22.90
2019-04-16T17:50:39.704Z,21.33
2019-04-16T17:53:25.506Z,21.60
2019-04-16T17:56:35.721Z,20.70
2019-04-16T17:59:12.800Z,21.07
2019-04-16T18:02:04.723Z,18.47
2019-04-16T18:04:59.864Z,21.97
2019-04-16T18:08:03.093Z,17.37
2019-04-16T18:10:58.713Z,18.97
2019-04-16T18:14:05.095Z,24.30
2019-04-16T18:16:50.083Z,21.83
2019-04-16T18:19:48.123Z,17.90
2019-04-16T18:22:45.019Z,20.20
2019-04-16T18:25:55.633Z,19.20
2019-04-16T18:28:26.911Z,19.37
2019-04-16T18:31:23.540Z,16.70
2019-04-16T18:34:08.812Z,21.50
2019-04-16T18:36:58.896Z,17.53
2019-04-16T18:39:50.506Z,20.73
2019-04-16T18:42:40.790Z,18.03
2019-04-16T18:45:42.939Z,18.83
2019-04-16T18:48:23.435Z,19.33
2019-04-16T18:51:00.291Z,15.73
2019-04-16T18:53:33.548Z,19.17
2019-04-16T18:56:07.242Z,18.63
2019-04-16T18:58:41.799Z,14.40
2019-04-16T19:01:24.914Z,25.90
2019-04-16T19:03:59.009Z,19.97
2019-04-16T19:06:34.395Z,18.00
2019-04-16T19:09:10.092Z,21.30
2019-04-16T19:11:45.085Z,16.43
2019-04-16T19:14:19.259Z,18.13
2019-04-16T19:16:53.709Z,18.63
2019-04-16T19:19:30.444Z,17.20
2019-04-16T19:22:04.529Z,15.10
2019-04-16T19:24:38.393Z,17.77
2019-04-16T19:27:12.212Z,17.30
2019-04-16T19:29:46.169Z,16.90
2019-04-16T19:32:21.368Z,21.10
2019-04-16T19:35:08.823Z,18.10
2019-04-16T19:37:36.740Z,14.90
2019-04-16T19:40:11.380Z,16.20
2019-04-16T19:42:46.731Z,21.87
2019-04-16T19:45:25.985Z,19.83
2019-04-16T19:48:02.123Z,23.07
2019-04-16T19:50:37.300Z,22.80
2019-04-16T19:53:14.922Z,21.87
2019-04-16T19:55:48.914Z,22.43
2019-04-16T19:58:25.983Z,18.70
2019-04-16T20:01:00.497Z,14.03
2019-04-16T20:03:35.593Z,17.33
2019-04-16T20:06:11.484Z,17.53
2019-04-16T20:08:45.550Z,20.90
2019-04-16T20:11:21.965Z,15.50
2019-04-16T20:14:01.471Z,13.77
2019-04-16T20:16:36.916Z,16.23
2019-04-16T20:19:11.711Z,15.73
2019-04-16T20:21:47.010Z,21.50
2019-04-16T20:24:21.145Z,17.90
2019-04-16T20:26:55.629Z,19.00
2019-04-16T20:29:29.662Z,19.10
2019-04-16T20:32:04.922Z,16.63
2019-04-16T20:34:42.404Z,22.13
2019-04-16T20:37:14.946Z,21.20
2019-04-16T20:39:50.020Z,14.53
2019-04-16T20:42:23.941Z,19.70
2019-04-16T20:44:58.432Z,21.43
2019-04-16T20:47:32.300Z,18.03
2019-04-16T20:50:07.565Z,17.73
2019-04-16T20:52:41.618Z,19.73
2019-04-16T20:55:16.737Z,17.20
2019-04-16T20:57:55.231Z,17.50
2019-04-16T21:00:30.629Z,15.33
2019-04-16T21:03:04.822Z,17.50
2019-04-16T21:05:38.882Z,14.50
2019-04-16T21:08:12.725Z,23.43
2019-04-16T21:10:46.829Z,22.00
2019-04-16T21:13:22.040Z,21.10
2019-04-16T21:15:57.319Z,26.17
2019-04-16T21:18:31.452Z,17.87
2019-04-16T21:21:05.255Z,24.50
2019-04-16T21:23:40.722Z,19.13
2019-04-16T21:26:16.525Z,17.87
2019-04-16T21:29:06.939Z,18.43
2019-04-16T21:31:44.669Z,25.80
2019-04-16T21:34:40.596Z,16.60
2019-04-16T21:37:23.292Z,17.87
2019-04-16T21:39:59.218Z,16.10
2019-04-16T21:42:34.836Z,21.90
2019-04-16T21:45:10.108Z,20.40
2019-04-16T21:47:45.362Z,19.40
2019-04-16T21:50:20.145Z,16.30
2019-04-16T21:52:56.570Z,15.20
2019-04-16T21:55:32.755Z,23.53
2019-04-16T21:58:07.640Z,16.30
2019-04-16T22:01:18.911Z,17.17
2019-04-16T22:04:06.863Z,17.47
2019-04-16T22:06:42.291Z,14.80
2019-04-16T22:09:15.990Z,21.13
2019-04-16T22:11:49.741Z,16.90
2019-04-16T22:14:23.687Z,18.27
2019-04-16T22:16:59.938Z,15.80
2019-04-16T22:19:37.149Z,16.17
2019-04-16T22:22:11.679Z,21.33
2019-04-16T22:24:46.985Z,17.10
2019-04-16T22:27:20.814Z,15.70
2019-04-16T22:29:55.068Z,17.37
2019-04-16T22:32:30.908Z,19.03
2019-04-16T22:35:04.302Z,13.10
2019-04-16T22:37:39.765Z,19.33
2019-04-16T22:40:28.020Z,14.27
2019-04-16T22:43:28.594Z,16.07
2019-04-16T22:46:08.948Z,23.70
2019-04-16T22:48:58.393Z,19.50
2019-04-16T22:51:32.226Z,21.37
2019-04-16T22:54:05.991Z,19.50
2019-04-16T22:56:51.716Z,14.47
2019-04-16T22:59:27.877Z,16.80
2019-04-16T23:02:02.563Z,17.00
2019-04-16T23:04:38.765Z,11.63
2019-04-16T23:07:13.012Z,13.70
2019-04-16T23:09:48.674Z,13.90
2019-04-16T23:12:28.143Z,14.90
2019-04-16T23:15:05.560Z,13.37
2019-04-16T23:17:42.921Z,13.70
2019-04-16T23:20:29.322Z,15.57
2019-04-16T23:22:57.136Z,19.83
2019-04-16T23:25:32.867Z,14.13
2019-04-16T23:28:10.646Z,14.07
2019-04-16T23:30:44.475Z,15.93
2019-04-16T23:33:21.060Z,12.77
2019-04-16T23:35:55.465Z,19.23
2019-04-16T23:38:32.226Z,16.30
2019-04-16T23:41:06.653Z,12.00
2019-04-16T23:43:54.896Z,15.17
2019-04-16T23:47:09.519Z,16.47
2019-04-16T23:50:08.847Z,15.57
2019-04-16T23:52:47.772Z,14.33
2019-04-16T23:55:39.486Z,12.90
2019-04-16T23:58:20.953Z,18.10
